createdAt,value
2022-11-05T00:00:41.860Z,5.60
2022-11-05T00:06:15.691Z,5.67
2022-11-05T00:09:03.656Z,5.97
2022-11-05T00:11:51.197Z,5.53
2022-11-05T00:14:38.754Z,5.00
2022-11-05T00:17:08.510Z,4.20
2022-11-05T00:19:38.270Z,4.43
2022-11-05T00:22:26.184Z,4.60
2022-11-05T00:25:13.297Z,3.67
2022-11-05T00:27:44.189Z,3.50
2022-11-05T00:30:18.619Z,3.58
2022-11-05T00:32:50.695Z,2.80
2022-11-05T00:35:22.759Z,2.50
2022-11-05T00:37:54.570Z,2.80
2022-11-05T00:40:24.297Z,2.22
2022-11-05T00:43:12.213Z,2.10
2022-11-05T00:45:42.363Z,2.27
2022-11-05T00:48:29.885Z,2.47
2022-11-05T00:50:59.678Z,2.43
2022-11-05T00:53:29.541Z,2.47
2022-11-05T00:56:00.445Z,2.83
2022-11-05T00:58:30.289Z,2.33
2022-11-05T01:01:01.874Z,2.70
2022-11-05T01:03:34.665Z,3.20
2022-11-05T01:06:12.606Z,3.12
2022-11-05T01:08:44.023Z,3.17
2022-11-05T01:11:35.089Z,3.62
2022-11-05T01:14:09.792Z,3.10
2022-11-05T01:16:40.674Z,2.90
2022-11-05T01:19:11.856Z,3.08
2022-11-05T01:21:41.991Z,3.43
2022-11-05T01:24:12.274Z,3.37
2022-11-05T01:26:42.100Z,3.07
2022-11-05T01:29:12.642Z,3.10
2022-11-05T01:31:42.401Z,3.33
2022-11-05T01:34:11.843Z,3.27
2022-11-05T01:36:41.317Z,3.30
2022-11-05T01:39:11.091Z,2.83
2022-11-05T01:41:41.141Z,2.67
2022-11-05T01:44:49.206Z,2.90
2022-11-05T01:47:33.812Z,2.30
2022-11-05T01:50:20.825Z,2.40
2022-11-05T01:52:53.027Z,2.25
2022-11-05T01:55:25.834Z,2.00
2022-11-05T01:57:58.615Z,1.80
2022-11-05T02:00:28.349Z,1.62
2022-11-05T02:02:58.986Z,1.60
2022-11-05T02:05:29.436Z,1.83
2022-11-05T02:07:59.265Z,2.13
2022-11-05T02:10:29.765Z,1.85
2022-11-05T02:12:59.997Z,2.60
2022-11-05T02:15:32.760Z,2.10
2022-11-05T02:18:20.330Z,2.02
2022-11-05T02:21:10.452Z,1.90
2022-11-05T02:23:52.085Z,2.80
2022-11-05T02:26:24.879Z,2.40
2022-11-05T02:29:20.202Z,3.63
2022-11-05T02:32:11.993Z,3.77
2022-11-05T02:34:50.586Z,2.90
2022-11-05T02:37:41.158Z,2.70
2022-11-05T02:40:29.486Z,2.92
2022-11-05T02:43:20.202Z,3.20
2022-11-05T02:46:04.744Z,3.00
2022-11-05T02:48:46.527Z,3.17
2022-11-05T02:54:43.502Z,2.90
2022-11-05T02:57:13.301Z,3.00
2022-11-05T02:59:43.069Z,3.30
2022-11-05T03:02:13.620Z,2.70
2022-11-05T03:04:43.594Z,3.13
2022-11-05T03:07:25.347Z,3.52
2022-11-05T03:10:22.135Z,3.20
2022-11-05T03:13:06.830Z,3.50
2022-11-05T03:15:57.408Z,3.75
2022-11-05T03:18:44.852Z,4.42
2022-11-05T03:21:20.168Z,4.53
2022-11-05T03:23:58.244Z,4.53
2022-11-05T03:26:31.084Z,4.33
2022-11-05T03:29:13.315Z,3.90
2022-11-05T03:31:45.103Z,4.73
2022-11-05T03:34:16.629Z,4.35
2022-11-05T03:36:49.693Z,4.77
2022-11-05T03:39:37.377Z,5.07
2022-11-05T03:42:12.717Z,5.08
2022-11-05T03:44:45.803Z,5.12
2022-11-05T03:47:18.654Z,5.40
2022-11-05T03:49:57.270Z,5.23
2022-11-05T03:52:29.772Z,5.40
2022-11-05T03:55:00.470Z,5.20
2022-11-05T03:57:33.292Z,5.20
2022-11-05T04:00:04.713Z,5.80
2022-11-05T04:02:36.312Z,6.33
2022-11-05T04:05:09.703Z,6.55
2022-11-05T04:07:57.461Z,6.20
2022-11-05T04:10:44.640Z,6.30
2022-11-05T04:13:26.429Z,6.10
2022-11-05T04:16:15.372Z,6.90
2022-11-05T04:18:45.112Z,6.23
2022-11-05T04:21:32.894Z,6.53
2022-11-05T04:24:08.817Z,6.55
2022-11-05T04:26:44.967Z,6.73
2022-11-05T04:29:32.542Z,7.27
2022-11-05T04:32:02.261Z,6.77
2022-11-05T04:34:32.006Z,7.03
2022-11-05T04:37:01.775Z,6.20
2022-11-05T04:39:31.899Z,6.90
2022-11-05T04:42:01.804Z,6.53
2022-11-05T04:44:31.857Z,6.40
2022-11-05T04:47:01.362Z,6.90
2022-11-05T04:49:31.152Z,6.90
2022-11-05T04:52:00.905Z,6.60
2022-11-05T04:54:31.122Z,6.93
2022-11-05T04:57:01.138Z,8.03
2022-11-05T04:59:30.906Z,6.83
2022-11-05T05:02:00.697Z,7.77
2022-11-05T05:04:30.263Z,7.95
2022-11-05T05:07:00.123Z,7.90
2022-11-05T05:09:29.850Z,7.90
2022-11-05T05:11:59.645Z,9.17
2022-11-05T05:14:29.415Z,8.23
2022-11-05T05:16:59.256Z,8.07
2022-11-05T05:19:29.078Z,8.23
2022-11-05T05:21:58.935Z,8.33
2022-11-05T05:24:28.754Z,8.10
2022-11-05T05:26:58.253Z,8.90
2022-11-05T05:29:27.987Z,8.50
2022-11-05T05:31:57.751Z,8.40
2022-11-05T05:34:27.502Z,8.50
2022-11-05T05:36:57.241Z,8.90
2022-11-05T05:39:27.474Z,8.97
2022-11-05T05:41:57.401Z,9.03
2022-11-05T05:44:26.859Z,9.67
2022-11-05T05:46:56.657Z,10.10
2022-11-05T05:49:26.418Z,9.43
2022-11-05T05:51:56.763Z,10.47
2022-11-05T05:54:32.141Z,10.32
2022-11-05T05:56:58.185Z,9.83
2022-11-05T05:59:28.040Z,10.30
2022-11-05T06:01:58.389Z,10.18
2022-11-05T06:04:28.303Z,9.33
2022-11-05T06:06:58.084Z,10.17
2022-11-05T06:09:27.869Z,9.67
2022-11-05T06:11:57.622Z,9.53
2022-11-05T06:14:27.434Z,10.53
2022-11-05T06:16:57.233Z,9.43
2022-11-05T06:19:27.188Z,10.63
2022-11-05T06:21:56.934Z,9.73
2022-11-05T06:24:26.499Z,9.75
2022-11-05T06:26:56.301Z,9.70
2022-11-05T06:29:26.062Z,9.77
2022-11-05T06:31:55.933Z,10.50
2022-11-05T06:34:25.390Z,9.65
2022-11-05T06:36:55.413Z,9.80
2022-11-05T06:39:25.248Z,9.83
2022-11-05T06:44:26.530Z,9.95
2022-11-05T06:46:56.406Z,9.93
2022-11-05T06:49:26.784Z,10.50
2022-11-05T06:51:56.512Z,10.37
2022-11-05T06:54:26.447Z,9.95
2022-11-05T06:56:56.459Z,11.57
2022-11-05T06:59:26.295Z,11.57
2022-11-05T07:01:55.953Z,11.70
2022-11-05T07:04:25.922Z,12.27
2022-11-05T07:06:55.700Z,12.67
2022-11-05T07:09:25.888Z,11.73
2022-11-05T07:11:55.951Z,11.97
2022-11-05T07:14:25.902Z,11.57
2022-11-05T07:16:57.236Z,12.40
2022-11-05T07:19:27.009Z,12.33
2022-11-05T07:21:57.059Z,12.80
2022-11-05T07:24:26.555Z,12.80
2022-11-05T07:26:56.315Z,12.33
2022-11-05T07:29:26.097Z,13.77
2022-11-05T07:31:55.883Z,12.40
2022-11-05T07:34:25.665Z,12.83
2022-11-05T07:36:55.452Z,13.43
2022-11-05T07:39:25.199Z,13.87
2022-11-05T07:41:55.656Z,13.05
2022-11-05T07:44:26.956Z,13.18
2022-11-05T07:46:57.039Z,13.22
2022-11-05T07:49:26.478Z,12.95
2022-11-05T07:51:56.292Z,12.67
2022-11-05T07:54:26.762Z,12.63
2022-11-05T07:56:56.513Z,13.50
2022-11-05T07:59:26.304Z,13.53
2022-11-05T08:01:56.523Z,13.18
2022-11-05T08:04:26.734Z,13.50
2022-11-05T08:06:56.476Z,13.73
2022-11-05T08:09:26.324Z,14.00
2022-11-05T08:12:02.693Z,13.65
2022-11-05T08:14:28.626Z,13.37
2022-11-05T08:17:01.283Z,13.40
2022-11-05T08:19:30.762Z,13.53
2022-11-05T08:22:00.553Z,12.77
2022-11-05T08:24:30.323Z,13.43
2022-11-05T08:27:00.139Z,12.93
2022-11-05T08:29:29.636Z,12.35
2022-11-05T08:31:59.435Z,11.40
2022-11-05T08:34:29.279Z,11.57
2022-11-05T08:37:00.920Z,12.00
2022-11-05T08:39:30.789Z,10.90
2022-11-05T08:42:00.723Z,11.10
2022-11-05T08:44:30.748Z,11.40
2022-11-05T08:47:00.661Z,11.77
2022-11-05T08:49:30.435Z,11.03
2022-11-05T08:52:00.207Z,10.73
2022-11-05T08:54:29.954Z,10.10
2022-11-05T08:56:59.472Z,9.70
2022-11-05T08:59:29.799Z,9.80
2022-11-05T09:01:59.890Z,10.27
2022-11-05T09:04:29.423Z,10.08
2022-11-05T09:06:59.209Z,8.40
2022-11-05T09:09:29.253Z,8.43
2022-11-05T09:12:11.696Z,8.43
2022-11-05T09:14:31.500Z,8.57
2022-11-05T09:17:01.228Z,8.33
2022-11-05T09:19:30.744Z,7.45
2022-11-05T09:22:00.547Z,7.93
2022-11-05T09:24:30.876Z,8.07
2022-11-05T09:27:00.709Z,8.43
2022-11-05T09:29:30.481Z,8.10
2022-11-05T09:32:00.262Z,7.83
2022-11-05T09:34:30.097Z,7.20
2022-11-05T09:36:59.735Z,7.50
2022-11-05T09:39:30.055Z,7.55
2022-11-05T09:42:02.855Z,8.40
2022-11-05T09:44:41.103Z,6.70
2022-11-05T09:47:24.048Z,6.17
2022-11-05T09:49:56.335Z,6.77
2022-11-05T09:52:28.756Z,6.53
2022-11-05T09:54:59.025Z,6.67
2022-11-05T09:57:40.137Z,5.90
2022-11-05T10:02:56.416Z,5.55
2022-11-05T10:05:27.904Z,6.60
2022-11-05T10:08:00.691Z,6.10
2022-11-05T10:10:41.048Z,5.78
2022-11-05T10:13:39.360Z,5.67
2022-11-05T10:16:26.767Z,5.80
2022-11-05T10:19:19.138Z,6.10
2022-11-05T10:22:06.321Z,5.45
2022-11-05T10:24:22.263Z,5.55
2022-11-05T10:26:54.072Z,5.30
2022-11-05T10:29:32.356Z,4.73
2022-11-05T10:32:05.524Z,5.70
2022-11-05T10:34:37.937Z,5.20
2022-11-05T10:37:07.715Z,4.93
2022-11-05T10:39:38.024Z,5.03
2022-11-05T10:42:15.552Z,4.95
2022-11-05T10:44:51.070Z,5.27
2022-11-05T10:47:26.540Z,4.60
2022-11-05T10:50:15.636Z,4.80
2022-11-05T10:52:57.347Z,4.70
2022-11-05T10:55:33.212Z,4.83
2022-11-05T10:58:18.005Z,5.27
2022-11-05T11:00:53.664Z,4.83
2022-11-05T11:03:50.176Z,4.60
2022-11-05T11:06:28.461Z,4.97
2022-11-05T11:09:03.233Z,4.40
2022-11-05T11:11:39.024Z,4.40
2022-11-05T11:14:17.177Z,4.20
2022-11-05T11:16:51.155Z,4.80
2022-11-05T11:19:35.130Z,5.00
2022-11-05T11:22:10.797Z,4.85
2022-11-05T11:24:49.948Z,4.35
2022-11-05T11:27:25.916Z,3.97
2022-11-05T11:30:07.043Z,4.60
2022-11-05T11:32:40.887Z,4.55
2022-11-05T11:35:22.392Z,4.56
2022-11-05T11:37:54.552Z,4.80
2022-11-05T11:40:27.321Z,4.20
2022-11-05T11:42:59.472Z,4.53
2022-11-05T11:45:35.059Z,4.67
2022-11-05T11:48:09.210Z,4.35
2022-11-05T11:50:46.996Z,4.25
2022-11-05T11:53:22.686Z,4.97
2022-11-05T11:56:16.527Z,5.10
2022-11-05T11:58:51.305Z,4.97
2022-11-05T12:01:43.416Z,4.33
2022-11-05T12:04:28.038Z,4.60
2022-11-05T12:07:27.873Z,4.62
2022-11-05T12:10:04.249Z,5.00
2022-11-05T12:12:37.044Z,5.15
2022-11-05T12:15:23.188Z,4.93
2022-11-05T12:18:02.060Z,4.77
2022-11-05T12:20:43.386Z,4.77
2022-11-05T12:23:31.372Z,4.97
2022-11-05T12:26:06.664Z,4.40
2022-11-05T12:29:17.138Z,4.50
2022-11-05T12:31:44.611Z,5.62
2022-11-05T12:36:55.992Z,4.90
2022-11-05T12:39:44.845Z,5.60
2022-11-05T12:42:42.883Z,5.80
2022-11-05T12:45:33.279Z,5.55
2022-11-05T12:48:09.011Z,5.97
2022-11-05T12:50:44.356Z,6.00
2022-11-05T12:56:10.000Z,6.25
2022-11-05T12:58:42.629Z,5.77
2022-11-05T13:01:18.454Z,5.40
2022-11-05T13:03:54.285Z,5.55
2022-11-05T13:06:26.769Z,5.33
2022-11-05T13:09:02.474Z,5.78
2022-11-05T13:11:37.552Z,5.93
2022-11-05T13:14:14.940Z,5.33
2022-11-05T13:17:05.681Z,5.47
2022-11-05T13:19:53.455Z,5.30
2022-11-05T13:22:38.112Z,5.37
2022-11-05T13:25:26.459Z,5.40
2022-11-05T13:28:26.296Z,5.20
2022-11-05T13:31:01.527Z,4.80
2022-11-05T13:33:34.634Z,4.10
2022-11-05T13:36:27.046Z,3.90
2022-11-05T13:39:11.653Z,4.27
2022-11-05T13:42:17.284Z,4.03
2022-11-05T13:44:55.820Z,4.13
2022-11-05T13:47:49.558Z,3.60
2022-11-05T13:50:50.333Z,3.80
2022-11-05T13:53:40.997Z,3.17
2022-11-05T13:56:35.594Z,3.30
2022-11-05T13:59:24.612Z,3.77
2022-11-05T14:02:03.086Z,3.47
2022-11-05T14:04:38.758Z,3.00
2022-11-05T14:07:14.640Z,3.53
2022-11-05T14:12:22.667Z,3.90
2022-11-05T14:14:59.155Z,3.50
2022-11-05T14:17:31.266Z,3.37
2022-11-05T14:20:09.616Z,3.60
2022-11-05T14:22:43.349Z,3.50
2022-11-05T14:25:25.360Z,3.23
2022-11-05T14:27:55.210Z,3.40
2022-11-05T14:30:48.994Z,3.67
2022-11-05T14:33:31.533Z,3.40
2022-11-05T14:36:22.317Z,3.60
2022-11-05T14:39:03.981Z,3.40
2022-11-05T14:41:30.047Z,3.67
2022-11-05T14:44:02.825Z,5.83
2022-11-05T14:46:48.206Z,3.80
2022-11-05T14:49:23.773Z,3.90
2022-11-05T14:51:56.289Z,4.57
2022-11-05T14:54:29.410Z,4.28
2022-11-05T14:57:03.026Z,4.60
2022-11-05T14:59:35.337Z,4.00
2022-11-05T15:02:14.099Z,4.00
2022-11-05T15:04:45.694Z,4.50
2022-11-05T15:07:25.002Z,3.90
2022-11-05T15:09:57.787Z,4.37
2022-11-05T15:12:51.592Z,4.03
2022-11-05T15:15:29.880Z,4.03
2022-11-05T15:18:05.434Z,4.27
2022-11-05T15:20:41.081Z,4.07
2022-11-05T15:23:14.067Z,4.67
2022-11-05T15:25:53.162Z,4.20
2022-11-05T15:28:38.803Z,4.20
2022-11-05T15:31:14.031Z,4.70
2022-11-05T15:33:48.393Z,4.23
2022-11-05T15:36:29.343Z,4.67
2022-11-05T15:39:29.130Z,5.17
2022-11-05T15:41:48.437Z,5.10
2022-11-05T15:44:28.269Z,5.17
2022-11-05T15:47:19.287Z,4.70
2022-11-05T15:49:57.793Z,4.80
2022-11-05T15:52:36.434Z,3.92
2022-11-05T15:55:12.971Z,4.60
2022-11-05T15:57:51.663Z,4.33
2022-11-05T16:00:24.470Z,4.60
2022-11-05T16:03:06.706Z,4.78
2022-11-05T16:05:39.274Z,5.95
2022-11-05T16:08:16.840Z,7.72
2022-11-05T16:10:49.707Z,6.17
2022-11-05T16:13:31.698Z,5.23
2022-11-05T16:16:05.274Z,4.70
2022-11-05T16:18:38.527Z,6.13
2022-11-05T16:21:18.487Z,5.43
2022-11-05T16:23:51.534Z,4.93
2022-11-05T16:29:22.010Z,4.40
2022-11-05T16:31:54.672Z,4.37
2022-11-05T16:34:36.622Z,4.00
2022-11-05T16:37:08.909Z,4.53
2022-11-05T16:39:38.781Z,5.80
2022-11-05T16:42:28.926Z,6.07
2022-11-05T16:44:58.681Z,4.93
2022-11-05T16:47:28.451Z,3.90
2022-11-05T16:49:58.259Z,4.33
2022-11-05T16:52:28.047Z,4.40
2022-11-05T16:54:57.835Z,4.37
2022-11-05T16:57:30.882Z,4.47
2022-11-05T17:00:01.837Z,4.12
2022-11-05T17:02:31.723Z,3.83
2022-11-05T17:05:01.569Z,4.30
2022-11-05T17:07:31.346Z,4.17
2022-11-05T17:10:01.163Z,3.30
2022-11-05T17:12:30.611Z,3.75
2022-11-05T17:15:00.375Z,4.20
2022-11-05T17:17:30.436Z,4.20
2022-11-05T17:20:00.198Z,4.23
2022-11-05T17:22:29.940Z,4.50
2022-11-05T17:24:59.678Z,4.37
2022-11-05T17:27:29.431Z,3.80
2022-11-05T17:29:58.931Z,4.05
2022-11-05T17:32:28.764Z,3.75
2022-11-05T17:34:58.541Z,4.10
2022-11-05T17:37:28.359Z,3.60
2022-11-05T17:39:58.438Z,4.13
2022-11-05T17:42:28.116Z,4.13
2022-11-05T17:44:58.169Z,4.10
2022-11-05T17:47:28.627Z,4.27
2022-11-05T17:49:58.436Z,3.90
2022-11-05T17:52:29.478Z,4.80
2022-11-05T17:54:59.209Z,4.57
2022-11-05T17:57:29.048Z,4.10
2022-11-05T17:59:58.778Z,4.60
2022-11-05T18:02:29.583Z,4.93
2022-11-05T18:04:59.442Z,7.30
2022-11-05T18:07:29.203Z,6.47
2022-11-05T18:09:59.036Z,4.70
2022-11-05T18:12:28.899Z,4.87
2022-11-05T18:14:58.453Z,4.40
2022-11-05T18:17:28.310Z,4.37
2022-11-05T18:19:58.273Z,3.77
2022-11-05T18:22:28.006Z,4.43
2022-11-05T18:24:57.760Z,3.80
2022-11-05T18:27:27.997Z,3.58
2022-11-05T18:29:58.083Z,3.70
2022-11-05T18:32:27.659Z,4.08
2022-11-05T18:34:57.417Z,4.00
2022-11-05T18:37:27.196Z,4.40
2022-11-05T18:39:56.952Z,5.47
2022-11-05T18:42:26.755Z,5.53
2022-11-05T18:44:56.576Z,4.17
2022-11-05T18:47:26.420Z,4.80
2022-11-05T18:49:56.231Z,4.57
2022-11-05T18:52:26.535Z,4.50
2022-11-05T18:54:56.368Z,4.00
2022-11-05T18:57:26.282Z,4.23
2022-11-05T18:59:56.064Z,4.40
2022-11-05T19:02:25.728Z,4.10
2022-11-05T19:05:26.901Z,4.27
2022-11-05T19:07:27.122Z,4.20
2022-11-05T19:09:56.848Z,3.90
2022-11-05T19:12:26.602Z,4.03
2022-11-05T19:15:01.920Z,4.17
2022-11-05T19:17:27.816Z,4.73
2022-11-05T19:19:57.613Z,4.23
2022-11-05T19:22:27.764Z,4.28
2022-11-05T19:24:57.809Z,4.12
2022-11-05T19:27:27.561Z,5.07
2022-11-05T19:29:57.587Z,4.10
2022-11-05T19:32:27.716Z,4.15
2022-11-05T19:34:57.907Z,4.20
2022-11-05T19:37:27.701Z,4.23
2022-11-05T19:39:57.503Z,4.67
2022-11-05T19:42:28.087Z,4.80
2022-11-05T19:45:03.176Z,5.05
2022-11-05T19:47:29.105Z,5.47
2022-11-05T19:49:58.850Z,5.60
2022-11-05T19:52:28.656Z,5.10
2022-11-05T19:54:58.171Z,5.25
2022-11-05T19:57:28.684Z,5.85
2022-11-05T19:59:58.438Z,5.70
2022-11-05T20:02:28.619Z,6.27
2022-11-05T20:04:58.814Z,6.30
2022-11-05T20:07:28.570Z,5.97
2022-11-05T20:09:58.317Z,5.90
2022-11-05T20:12:27.792Z,5.60
2022-11-05T20:14:57.571Z,6.07
2022-11-05T20:17:27.407Z,5.90
2022-11-05T20:19:56.930Z,6.15
2022-11-05T20:22:26.691Z,5.20
2022-11-05T20:24:56.743Z,6.40
2022-11-05T20:27:26.537Z,5.73
2022-11-05T20:29:56.362Z,5.63
2022-11-05T20:32:27.392Z,6.47
2022-11-05T20:34:57.261Z,6.77
2022-11-05T20:37:27.051Z,6.87
2022-11-05T20:39:56.865Z,6.37
2022-11-05T20:42:26.442Z,6.05
2022-11-05T20:44:56.170Z,6.33
2022-11-05T20:47:25.917Z,6.53
2022-11-05T20:49:57.281Z,6.15
2022-11-05T20:52:29.703Z,6.53
2022-11-05T20:55:01.091Z,6.05
2022-11-05T20:57:30.925Z,6.70
2022-11-05T21:00:00.675Z,6.13
2022-11-05T21:02:30.591Z,6.97
2022-11-05T21:05:00.171Z,6.65
2022-11-05T21:07:29.983Z,6.47
2022-11-05T21:10:00.102Z,6.42
2022-11-05T21:12:29.872Z,5.90
2022-11-05T21:14:59.926Z,6.28
2022-11-05T21:17:29.727Z,6.17
2022-11-05T21:19:59.176Z,7.12
2022-11-05T21:22:28.874Z,6.95
2022-11-05T21:24:58.606Z,6.05
2022-11-05T21:27:28.534Z,7.10
2022-11-05T21:29:57.997Z,6.90
2022-11-05T21:32:27.771Z,7.20
2022-11-05T21:34:57.544Z,6.30
2022-11-05T21:37:27.519Z,6.57
2022-11-05T21:39:57.273Z,7.00
2022-11-05T21:42:26.750Z,6.08
2022-11-05T21:45:00.368Z,6.10
2022-11-05T21:47:29.277Z,6.13
2022-11-05T21:49:59.063Z,6.33
2022-11-05T21:52:46.604Z,6.25
2022-11-05T21:55:33.761Z,6.90
2022-11-05T21:58:23.827Z,6.25
2022-11-05T22:00:53.591Z,6.20
2022-11-05T22:03:23.654Z,5.90
2022-11-05T22:05:53.947Z,6.50
2022-11-05T22:08:23.482Z,6.10
2022-11-05T22:10:53.233Z,5.90
2022-11-05T22:13:23.029Z,5.77
2022-11-05T22:15:56.927Z,6.07
2022-11-05T22:18:26.750Z,5.72
2022-11-05T22:20:56.476Z,6.20
2022-11-05T22:23:26.237Z,5.43
2022-11-05T22:26:02.472Z,6.13
2022-11-05T22:28:32.053Z,5.72
2022-11-05T22:31:01.801Z,6.43
2022-11-05T22:33:32.548Z,5.93
2022-11-05T22:36:03.802Z,6.00
2022-11-05T22:38:33.933Z,6.30
2022-11-05T22:41:10.895Z,6.23
2022-11-05T22:43:40.828Z,6.75
2022-11-05T22:46:14.490Z,5.74
2022-11-05T22:48:45.061Z,5.57
2022-11-05T22:51:17.872Z,5.83
2022-11-05T22:53:48.210Z,6.20
2022-11-05T22:56:20.825Z,5.70
2022-11-05T22:58:51.627Z,5.53
2022-11-05T23:01:22.515Z,5.73
2022-11-05T23:03:54.466Z,5.67
2022-11-05T23:06:50.651Z,6.43
2022-11-05T23:09:52.851Z,5.70
2022-11-05T23:12:25.471Z,5.77
2022-11-05T23:14:57.484Z,5.75
2022-11-05T23:17:45.282Z,5.87
2022-11-05T23:20:40.678Z,5.10
2022-11-05T23:23:31.421Z,5.37
2022-11-05T23:26:03.954Z,4.87
2022-11-05T23:28:33.699Z,5.03
2022-11-05T23:31:20.756Z,5.60
2022-11-05T23:33:50.498Z,5.40
2022-11-05T23:36:38.188Z,5.03
2022-11-05T23:39:08.079Z,4.53
2022-11-05T23:41:55.173Z,5.27
2022-11-05T23:44:42.187Z,4.90
2022-11-05T23:47:29.449Z,4.50
2022-11-05T23:49:59.209Z,4.97
2022-11-05T23:52:28.951Z,4.60
2022-11-05T23:54:59.031Z,5.22
2022-11-05T23:57:28.786Z,5.20
2022-11-05T23:59:58.538Z,4.70
